KFET/FET METAR and TAF weather

Enter ICAO airport designator
Station Type Date Time Source
KFET METAR 2020/07/02 17:55 UTC NOAA

KFET 021755Z AUTO 09003KT 10SM SCT028 29/24 A3004 RMK AO2 T02900236 10291 20217


Station Type Date Time Source
KFET Decoded METAR 2020/07/02 17:55 UTC NOAA

Fremont Municipal Airport, NE, United States (KFET) 41-27N 096-31W
Jul 02, 2020 - 01:55 PM EDT / 2020.07.02 1755 UTC
Wind: from the E (090 degrees) at 3 MPH (3 KT):0
Visibility: 10 mile(s):0
Sky conditions: partly cloudy
Temperature: 84.2 F (29.0 C)
Dew Point: 74.5 F (23.6 C)
Relative Humidity: 72%
Pressure (altimeter): 30.04 in. Hg (1017 hPa)
ob: KFET 021755Z AUTO 09003KT 10SM SCT028 29/24 A3004 RMK AO2 T02900236 10291 20217
cycle: 18

Station Type Date Time Source
KFET TAF UTC NOAA

Error!

Example: see airport list